Balta, North Dakota
Current Conditions -  °F | °C
As of 7:15 PM on Thursday 27 Nov 2014 (Local Time) from KRUG Reporting Station
Haze Haze  
Wind Chill: -11°   Ceiling: 200
Heat Index:   Visibility: 3mi
Dew Point:   Wind: 16mph
Humidity: 85%   Direction: 120°ESE
Pressure: 30.04"   Gusts: NA
Location:  48.17°N, 100.04°W
Report Text: KRUG 280115Z AUTO 12014KT 3SM BR BKN002 BKN011 OVC017 M14/M16 A3004 RMK AO2
Loading
Personal Weather Stations






























Interactive Weather Map New forecast layout! Learn more

10-Day Weather Forecast

Advertisements
Track Severe Weather on mobile